sensor_id;sensor_type;location;lat;lon;timestamp;P1;durP1;ratioP1;P2;durP2;ratioP2
7557;SDS011;3820;51.098;13.716;2023-04-01T00:02:21;5.10;;;1.70;;
7557;SDS011;3820;51.098;13.716;2023-04-01T00:04:48;4.47;;;1.73;;
7557;SDS011;3820;51.098;13.716;2023-04-01T00:07:15;6.40;;;1.87;;
7557;SDS011;3820;51.098;13.716;2023-04-01T00:09:41;3.03;;;1.80;;
7557;SDS011;3820;51.098;13.716;2023-04-01T00:12:08;4.03;;;1.67;;
7557;SDS011;3820;51.098;13.716;2023-04-01T00:14:35;5.43;;;1.50;;
7557;SDS011;3820;51.098;13.716;2023-04-01T00:17:03;4.27;;;1.60;;
7557;SDS011;3820;51.098;13.716;2023-04-01T00:19:30;4.87;;;1.80;;
7557;SDS011;3820;51.098;13.716;2023-04-01T00:21:58;3.13;;;1.60;;
7557;SDS011;3820;51.098;13.716;2023-04-01T00:24:24;4.63;;;1.40;;
7557;SDS011;3820;51.098;13.716;2023-04-01T00:26:51;4.43;;;1.53;;
7557;SDS011;3820;51.098;13.716;2023-04-01T00:29:18;3.63;;;1.60;;
7557;SDS011;3820;51.098;13.716;2023-04-01T00:31:44;2.20;;;1.40;;
7557;SDS011;3820;51.098;13.716;2023-04-01T00:34:12;4.07;;;1.50;;
7557;SDS011;3820;51.098;13.716;2023-04-01T00:36:38;4.10;;;1.57;;
7557;SDS011;3820;51.098;13.716;2023-04-01T00:39:05;4.20;;;1.43;;
7557;SDS011;3820;51.098;13.716;2023-04-01T00:41:31;6.73;;;1.47;;
7557;SDS011;3820;51.098;13.716;2023-04-01T00:44:18;4.13;;;1.30;;
7557;SDS011;3820;51.098;13.716;2023-04-01T00:46:49;6.80;;;1.90;;
7557;SDS011;3820;51.098;13.716;2023-04-01T00:49:16;5.67;;;1.67;;
7557;SDS011;3820;51.098;13.716;2023-04-01T00:51:44;4.53;;;1.57;;
7557;SDS011;3820;51.098;13.716;2023-04-01T00:54:12;5.87;;;1.40;;
7557;SDS011;3820;51.098;13.716;2023-04-01T00:56:41;4.90;;;1.53;;
7557;SDS011;3820;51.098;13.716;2023-04-01T00:59:14;3.43;;;1.43;;
7557;SDS011;3820;51.098;13.716;2023-04-01T01:01:43;4.97;;;1.67;;
7557;SDS011;3820;51.098;13.716;2023-04-01T01:04:22;3.30;;;1.60;;
7557;SDS011;3820;51.098;13.716;2023-04-01T01:09:30;5.00;;;1.83;;
7557;SDS011;3820;51.098;13.716;2023-04-01T01:12:11;5.37;;;1.63;;
7557;SDS011;3820;51.098;13.716;2023-04-01T01:14:45;3.60;;;1.57;;
7557;SDS011;3820;51.098;13.716;2023-04-01T01:17:24;5.80;;;1.77;;
7557;SDS011;3820;51.098;13.716;2023-04-01T01:23:38;5.30;;;1.80;;
7557;SDS011;3820;51.098;13.716;2023-04-01T01:38:01;6.17;;;1.77;;
7557;SDS011;3820;51.098;13.716;2023-04-01T01:40:31;3.43;;;1.60;;
7557;SDS011;3820;51.098;13.716;2023-04-01T01:43:00;2.33;;;1.33;;
7557;SDS011;3820;51.098;13.716;2023-04-01T01:45:31;3.10;;;1.57;;
7557;SDS011;3820;51.098;13.716;2023-04-01T01:48:00;6.87;;;1.70;;
7557;SDS011;3820;51.098;13.716;2023-04-01T01:50:29;4.47;;;1.50;;
7557;SDS011;3820;51.098;13.716;2023-04-01T01:53:07;6.13;;;1.50;;
7557;SDS011;3820;51.098;13.716;2023-04-01T01:55:36;4.23;;;1.70;;
7557;SDS011;3820;51.098;13.716;2023-04-01T02:00:59;3.80;;;1.50;;
7557;SDS011;3820;51.098;13.716;2023-04-01T02:03:29;3.33;;;1.43;;
7557;SDS011;3820;51.098;13.716;2023-04-01T02:05:58;6.27;;;1.63;;
7557;SDS011;3820;51.098;13.716;2023-04-01T02:08:41;5.27;;;1.40;;
7557;SDS011;3820;51.098;13.716;2023-04-01T02:11:15;5.17;;;1.50;;
7557;SDS011;3820;51.098;13.716;2023-04-01T02:16:27;6.43;;;1.63;;
7557;SDS011;3820;51.098;13.716;2023-04-01T02:18:56;4.77;;;1.80;;
7557;SDS011;3820;51.098;13.716;2023-04-01T02:21:24;6.57;;;1.70;;
7557;SDS011;3820;51.098;13.716;2023-04-01T02:23:52;6.47;;;1.77;;
7557;SDS011;3820;51.098;13.716;2023-04-01T02:26:20;3.73;;;1.57;;
7557;SDS011;3820;51.098;13.716;2023-04-01T02:28:47;2.17;;;1.40;;
7557;SDS011;3820;51.098;13.716;2023-04-01T02:31:15;6.20;;;1.50;;
7557;SDS011;3820;51.098;13.716;2023-04-01T02:33:42;5.50;;;1.47;;
7557;SDS011;3820;51.098;13.716;2023-04-01T02:36:12;5.03;;;1.70;;
7557;SDS011;3820;51.098;13.716;2023-04-01T02:38:40;3.20;;;1.50;;
7557;SDS011;3820;51.098;13.716;2023-04-01T02:41:07;4.43;;;1.40;;
7557;SDS011;3820;51.098;13.716;2023-04-01T02:43:34;2.93;;;1.60;;
7557;SDS011;3820;51.098;13.716;2023-04-01T02:46:01;3.87;;;1.43;;
7557;SDS011;3820;51.098;13.716;2023-04-01T02:48:28;4.53;;;2.00;;
7557;SDS011;3820;51.098;13.716;2023-04-01T02:50:55;4.60;;;1.50;;
7557;SDS011;3820;51.098;13.716;2023-04-01T02:53:22;5.73;;;1.80;;
7557;SDS011;3820;51.098;13.716;2023-04-01T02:55:48;4.53;;;1.60;;
7557;SDS011;3820;51.098;13.716;2023-04-01T02:58:18;4.27;;;1.50;;
7557;SDS011;3820;51.098;13.716;2023-04-01T03:00:44;5.87;;;1.77;;
7557;SDS011;3820;51.098;13.716;2023-04-01T03:03:11;5.80;;;1.90;;
7557;SDS011;3820;51.098;13.716;2023-04-01T03:05:39;5.87;;;1.60;;
7557;SDS011;3820;51.098;13.716;2023-04-01T03:08:06;3.63;;;1.40;;
7557;SDS011;3820;51.098;13.716;2023-04-01T03:10:33;5.07;;;1.70;;
7557;SDS011;3820;51.098;13.716;2023-04-01T03:12:59;5.20;;;1.80;;
7557;SDS011;3820;51.098;13.716;2023-04-01T03:15:26;5.37;;;1.90;;
7557;SDS011;3820;51.098;13.716;2023-04-01T03:17:52;5.83;;;1.87;;
7557;SDS011;3820;51.098;13.716;2023-04-01T03:20:19;6.87;;;1.80;;
7557;SDS011;3820;51.098;13.716;2023-04-01T03:22:46;4.23;;;1.70;;
7557;SDS011;3820;51.098;13.716;2023-04-01T03:25:13;5.53;;;1.73;;
7557;SDS011;3820;51.098;13.716;2023-04-01T03:27:39;4.73;;;1.80;;
7557;SDS011;3820;51.098;13.716;2023-04-01T03:30:06;3.90;;;1.57;;
7557;SDS011;3820;51.098;13.716;2023-04-01T03:32:33;6.00;;;1.60;;
7557;SDS011;3820;51.098;13.716;2023-04-01T03:34:59;5.13;;;1.50;;
7557;SDS011;3820;51.098;13.716;2023-04-01T03:37:26;3.80;;;1.63;;
7557;SDS011;3820;51.098;13.716;2023-04-01T03:39:53;5.03;;;1.70;;
7557;SDS011;3820;51.098;13.716;2023-04-01T03:42:20;4.27;;;1.53;;
7557;SDS011;3820;51.098;13.716;2023-04-01T03:44:47;3.97;;;1.67;;
7557;SDS011;3820;51.098;13.716;2023-04-01T03:47:13;5.70;;;1.80;;
7557;SDS011;3820;51.098;13.716;2023-04-01T03:49:40;3.57;;;1.60;;
7557;SDS011;3820;51.098;13.716;2023-04-01T03:52:08;5.53;;;1.70;;
7557;SDS011;3820;51.098;13.716;2023-04-01T03:54:36;5.13;;;1.80;;
7557;SDS011;3820;51.098;13.716;2023-04-01T03:57:03;6.10;;;1.60;;
7557;SDS011;3820;51.098;13.716;2023-04-01T03:59:30;3.80;;;1.60;;
7557;SDS011;3820;51.098;13.716;2023-04-01T04:01:56;5.83;;;1.90;;
7557;SDS011;3820;51.098;13.716;2023-04-01T04:04:23;6.43;;;1.73;;
7557;SDS011;3820;51.098;13.716;2023-04-01T04:06:50;4.13;;;1.40;;
7557;SDS011;3820;51.098;13.716;2023-04-01T04:09:17;3.90;;;1.60;;
7557;SDS011;3820;51.098;13.716;2023-04-01T04:11:43;4.93;;;1.70;;
7557;SDS011;3820;51.098;13.716;2023-04-01T04:14:10;5.03;;;1.37;;
7557;SDS011;3820;51.098;13.716;2023-04-01T04:16:37;3.87;;;1.70;;
7557;SDS011;3820;51.098;13.716;2023-04-01T04:19:03;14.37;;;7.80;;
7557;SDS011;3820;51.098;13.716;2023-04-01T04:21:30;5.87;;;2.70;;
7557;SDS011;3820;51.098;13.716;2023-04-01T04:24:00;25.37;;;9.10;;
7557;SDS011;3820;51.098;13.716;2023-04-01T04:26:27;15.77;;;6.10;;
7557;SDS011;3820;51.098;13.716;2023-04-01T04:28:54;16.60;;;7.30;;
7557;SDS011;3820;51.098;13.716;2023-04-01T04:31:22;55.70;;;27.03;;
7557;SDS011;3820;51.098;13.716;2023-04-01T04:33:50;127.77;;;66.50;;
7557;SDS011;3820;51.098;13.716;2023-04-01T04:36:18;132.47;;;67.47;;
7557;SDS011;3820;51.098;13.716;2023-04-01T04:38:45;47.50;;;24.70;;
7557;SDS011;3820;51.098;13.716;2023-04-01T04:41:12;43.63;;;24.03;;
7557;SDS011;3820;51.098;13.716;2023-04-01T04:43:48;30.80;;;17.27;;
7557;SDS011;3820;51.098;13.716;2023-04-01T04:46:17;9.07;;;6.13;;
7557;SDS011;3820;51.098;13.716;2023-04-01T04:48:43;6.53;;;2.83;;
7557;SDS011;3820;51.098;13.716;2023-04-01T04:51:14;7.40;;;2.20;;
7557;SDS011;3820;51.098;13.716;2023-04-01T04:53:42;8.30;;;2.10;;
7557;SDS011;3820;51.098;13.716;2023-04-01T04:56:09;5.93;;;2.90;;
7557;SDS011;3820;51.098;13.716;2023-04-01T04:58:37;5.67;;;3.10;;
7557;SDS011;3820;51.098;13.716;2023-04-01T05:01:05;4.93;;;2.00;;
7557;SDS011;3820;51.098;13.716;2023-04-01T05:03:33;5.23;;;2.90;;
7557;SDS011;3820;51.098;13.716;2023-04-01T05:05:59;7.93;;;2.30;;
7557;SDS011;3820;51.098;13.716;2023-04-01T05:08:26;6.87;;;2.30;;
7557;SDS011;3820;51.098;13.716;2023-04-01T05:10:52;8.27;;;3.97;;
7557;SDS011;3820;51.098;13.716;2023-04-01T05:13:19;5.00;;;2.33;;
7557;SDS011;3820;51.098;13.716;2023-04-01T05:15:46;4.57;;;2.50;;
7557;SDS011;3820;51.098;13.716;2023-04-01T05:18:13;7.30;;;1.80;;
7557;SDS011;3820;51.098;13.716;2023-04-01T05:20:45;5.10;;;2.23;;
7557;SDS011;3820;51.098;13.716;2023-04-01T05:23:15;4.97;;;2.20;;
7557;SDS011;3820;51.098;13.716;2023-04-01T05:25:42;3.50;;;1.50;;
7557;SDS011;3820;51.098;13.716;2023-04-01T05:28:09;2.60;;;1.27;;
7557;SDS011;3820;51.098;13.716;2023-04-01T05:30:36;6.27;;;1.67;;
7557;SDS011;3820;51.098;13.716;2023-04-01T05:33:03;3.27;;;1.43;;
7557;SDS011;3820;51.098;13.716;2023-04-01T05:35:30;3.70;;;1.60;;
7557;SDS011;3820;51.098;13.716;2023-04-01T05:37:57;6.10;;;1.73;;
7557;SDS011;3820;51.098;13.716;2023-04-01T05:40:23;3.07;;;1.40;;
7557;SDS011;3820;51.098;13.716;2023-04-01T05:42:50;4.60;;;1.67;;
7557;SDS011;3820;51.098;13.716;2023-04-01T05:45:16;3.60;;;1.63;;
7557;SDS011;3820;51.098;13.716;2023-04-01T05:47:43;3.23;;;1.60;;
7557;SDS011;3820;51.098;13.716;2023-04-01T05:50:10;3.77;;;1.60;;
7557;SDS011;3820;51.098;13.716;2023-04-01T05:52:37;4.80;;;1.80;;
7557;SDS011;3820;51.098;13.716;2023-04-01T05:55:04;3.13;;;1.80;;
7557;SDS011;3820;51.098;13.716;2023-04-01T05:57:31;3.63;;;1.80;;
7557;SDS011;3820;51.098;13.716;2023-04-01T05:59:58;4.40;;;1.70;;
7557;SDS011;3820;51.098;13.716;2023-04-01T06:02:24;3.17;;;1.67;;
7557;SDS011;3820;51.098;13.716;2023-04-01T06:04:54;3.73;;;1.67;;
7557;SDS011;3820;51.098;13.716;2023-04-01T06:07:30;3.23;;;1.63;;
7557;SDS011;3820;51.098;13.716;2023-04-01T06:09:57;4.37;;;1.50;;
7557;SDS011;3820;51.098;13.716;2023-04-01T06:18:15;5.63;;;1.77;;
7557;SDS011;3820;51.098;13.716;2023-04-01T06:32:12;5.23;;;1.83;;
7557;SDS011;3820;51.098;13.716;2023-04-01T06:35:22;3.53;;;1.80;;
7557;SDS011;3820;51.098;13.716;2023-04-01T06:37:59;4.93;;;1.70;;
7557;SDS011;3820;51.098;13.716;2023-04-01T06:43:33;5.80;;;1.70;;
7557;SDS011;3820;51.098;13.716;2023-04-01T06:46:29;4.20;;;1.70;;
7557;SDS011;3820;51.098;13.716;2023-04-01T06:52:10;3.23;;;1.70;;
7557;SDS011;3820;51.098;13.716;2023-04-01T06:54:44;5.43;;;1.60;;
7557;SDS011;3820;51.098;13.716;2023-04-01T07:00:10;4.57;;;2.67;;
7557;SDS011;3820;51.098;13.716;2023-04-01T07:02:48;8.93;;;2.30;;
7557;SDS011;3820;51.098;13.716;2023-04-01T07:05:20;7.43;;;1.67;;
7557;SDS011;3820;51.098;13.716;2023-04-01T07:07:48;6.80;;;2.63;;
7557;SDS011;3820;51.098;13.716;2023-04-01T07:13:27;4.67;;;1.40;;
7557;SDS011;3820;51.098;13.716;2023-04-01T07:16:14;4.30;;;1.30;;
7557;SDS011;3820;51.098;13.716;2023-04-01T07:18:54;4.40;;;1.73;;
7557;SDS011;3820;51.098;13.716;2023-04-01T07:21:35;3.90;;;2.00;;
7557;SDS011;3820;51.098;13.716;2023-04-01T07:24:10;5.90;;;1.30;;
7557;SDS011;3820;51.098;13.716;2023-04-01T07:26:41;3.07;;;1.80;;
7557;SDS011;3820;51.098;13.716;2023-04-01T07:29:09;5.70;;;1.47;;
7557;SDS011;3820;51.098;13.716;2023-04-01T07:31:42;2.97;;;1.50;;
7557;SDS011;3820;51.098;13.716;2023-04-01T07:39:43;3.03;;;1.40;;
7557;SDS011;3820;51.098;13.716;2023-04-01T07:42:20;2.53;;;1.27;;
7557;SDS011;3820;51.098;13.716;2023-04-01T07:45:02;3.03;;;1.07;;
7557;SDS011;3820;51.098;13.716;2023-04-01T07:50:26;4.97;;;1.30;;
7557;SDS011;3820;51.098;13.716;2023-04-01T07:53:07;3.40;;;1.23;;
7557;SDS011;3820;51.098;13.716;2023-04-01T07:58:20;2.43;;;1.27;;
7557;SDS011;3820;51.098;13.716;2023-04-01T08:06:35;3.97;;;1.20;;
7557;SDS011;3820;51.098;13.716;2023-04-01T08:09:19;3.47;;;1.30;;
7557;SDS011;3820;51.098;13.716;2023-04-01T08:12:04;2.40;;;1.20;;
7557;SDS011;3820;51.098;13.716;2023-04-01T08:20:18;3.23;;;1.20;;
7557;SDS011;3820;51.098;13.716;2023-04-01T08:25:51;3.07;;;1.10;;
7557;SDS011;3820;51.098;13.716;2023-04-01T08:28:24;3.27;;;1.43;;
7557;SDS011;3820;51.098;13.716;2023-04-01T08:34:04;4.47;;;1.10;;
7557;SDS011;3820;51.098;13.716;2023-04-01T08:36:36;2.57;;;1.00;;
7557;SDS011;3820;51.098;13.716;2023-04-01T08:39:15;3.97;;;1.20;;
7557;SDS011;3820;51.098;13.716;2023-04-01T08:58:59;6.00;;;1.30;;
7557;SDS011;3820;51.098;13.716;2023-04-01T09:12:48;4.27;;;1.40;;
7557;SDS011;3820;51.098;13.716;2023-04-01T09:15:47;2.03;;;0.93;;
7557;SDS011;3820;51.098;13.716;2023-04-01T09:24:12;3.13;;;0.95;;
7557;SDS011;3820;51.098;13.716;2023-04-01T09:26:56;3.20;;;0.90;;
7557;SDS011;3820;51.098;13.716;2023-04-01T09:35:47;2.23;;;1.23;;
7557;SDS011;3820;51.098;13.716;2023-04-01T09:44:04;3.83;;;1.10;;
7557;SDS011;3820;51.098;13.716;2023-04-01T09:49:26;2.35;;;1.10;;
7557;SDS011;3820;51.098;13.716;2023-04-01T09:57:43;2.50;;;0.93;;
7557;SDS011;3820;51.098;13.716;2023-04-01T10:00:35;0.77;;;0.65;;
7557;SDS011;3820;51.098;13.716;2023-04-01T10:03:39;5.90;;;1.20;;
7557;SDS011;3820;51.098;13.716;2023-04-01T10:09:14;3.30;;;1.05;;
7557;SDS011;3820;51.098;13.716;2023-04-01T10:14:37;2.42;;;0.88;;
7557;SDS011;3820;51.098;13.716;2023-04-01T10:20:15;2.50;;;1.00;;
7557;SDS011;3820;51.098;13.716;2023-04-01T10:31:26;2.45;;;1.27;;
7557;SDS011;3820;51.098;13.716;2023-04-01T10:36:56;2.25;;;1.15;;
7557;SDS011;3820;51.098;13.716;2023-04-01T10:59:11;2.13;;;1.30;;
7557;SDS011;3820;51.098;13.716;2023-04-01T11:19:52;6.53;;;2.00;;
7557;SDS011;3820;51.098;13.716;2023-04-01T11:33:45;7.00;;;2.10;;
7557;SDS011;3820;51.098;13.716;2023-04-01T11:36:22;4.25;;;1.42;;
7557;SDS011;3820;51.098;13.716;2023-04-01T11:44:26;4.07;;;1.85;;
7557;SDS011;3820;51.098;13.716;2023-04-01T11:47:00;3.53;;;1.40;;
7557;SDS011;3820;51.098;13.716;2023-04-01T11:49:36;4.32;;;1.67;;
7557;SDS011;3820;51.098;13.716;2023-04-01T12:01:33;3.10;;;1.52;;
7557;SDS011;3820;51.098;13.716;2023-04-01T12:43:15;0.73;;;0.60;;
7557;SDS011;3820;51.098;13.716;2023-04-01T12:52:03;1.02;;;0.60;;
7557;SDS011;3820;51.098;13.716;2023-04-01T13:00:35;1.55;;;0.80;;
7557;SDS011;3820;51.098;13.716;2023-04-01T13:09:02;2.55;;;1.20;;
7557;SDS011;3820;51.098;13.716;2023-04-01T13:14:30;2.35;;;0.70;;
7557;SDS011;3820;51.098;13.716;2023-04-01T13:17:24;1.73;;;0.90;;
7557;SDS011;3820;51.098;13.716;2023-04-01T13:20:14;1.52;;;0.88;;
7557;SDS011;3820;51.098;13.716;2023-04-01T13:22:48;1.77;;;0.70;;
7557;SDS011;3820;51.098;13.716;2023-04-01T13:30:59;1.70;;;0.82;;
7557;SDS011;3820;51.098;13.716;2023-04-01T13:33:36;1.25;;;0.75;;
7557;SDS011;3820;51.098;13.716;2023-04-01T13:52:33;2.55;;;1.13;;
7557;SDS011;3820;51.098;13.716;2023-04-01T13:55:24;2.13;;;1.30;;
7557;SDS011;3820;51.098;13.716;2023-04-01T14:09:10;1.88;;;1.00;;
7557;SDS011;3820;51.098;13.716;2023-04-01T14:12:06;1.50;;;1.17;;
7557;SDS011;3820;51.098;13.716;2023-04-01T14:20:25;1.05;;;0.68;;
7557;SDS011;3820;51.098;13.716;2023-04-01T14:34:01;2.17;;;1.50;;
7557;SDS011;3820;51.098;13.716;2023-04-01T14:45:20;1.35;;;0.90;;
7557;SDS011;3820;51.098;13.716;2023-04-01T14:50:46;0.73;;;0.73;;
7557;SDS011;3820;51.098;13.716;2023-04-01T14:55:50;0.60;;;0.60;;
7557;SDS011;3820;51.098;13.716;2023-04-01T14:58:45;8.35;;;5.10;;
7557;SDS011;3820;51.098;13.716;2023-04-01T15:01:25;14.15;;;7.40;;
7557;SDS011;3820;51.098;13.716;2023-04-01T15:09:30;2.80;;;2.03;;
7557;SDS011;3820;51.098;13.716;2023-04-01T15:12:38;3.17;;;1.85;;
7557;SDS011;3820;51.098;13.716;2023-04-01T15:18:09;15.43;;;10.05;;
7557;SDS011;3820;51.098;13.716;2023-04-01T15:32:14;2.60;;;1.92;;
7557;SDS011;3820;51.098;13.716;2023-04-01T15:40:33;16.95;;;12.48;;
7557;SDS011;3820;51.098;13.716;2023-04-01T15:51:28;18.88;;;12.10;;
7557;SDS011;3820;51.098;13.716;2023-04-01T16:02:40;4.80;;;3.10;;
7557;SDS011;3820;51.098;13.716;2023-04-01T16:16:11;1.23;;;1.13;;
7557;SDS011;3820;51.098;13.716;2023-04-01T16:23:50;0.90;;;0.90;;
7557;SDS011;3820;51.098;13.716;2023-04-01T16:26:25;2.03;;;0.80;;
7557;SDS011;3820;51.098;13.716;2023-04-01T16:31:53;1.52;;;1.00;;
7557;SDS011;3820;51.098;13.716;2023-04-01T16:34:36;2.63;;;1.00;;
7557;SDS011;3820;51.098;13.716;2023-04-01T16:37:07;0.83;;;0.80;;
7557;SDS011;3820;51.098;13.716;2023-04-01T16:48:06;1.17;;;0.97;;
7557;SDS011;3820;51.098;13.716;2023-04-01T16:53:30;2.00;;;0.80;;
7557;SDS011;3820;51.098;13.716;2023-04-01T16:56:04;1.40;;;0.90;;
7557;SDS011;3820;51.098;13.716;2023-04-01T16:58:41;2.30;;;1.02;;
7557;SDS011;3820;51.098;13.716;2023-04-01T17:01:26;1.27;;;0.97;;
7557;SDS011;3820;51.098;13.716;2023-04-01T17:04:00;1.38;;;1.00;;
7557;SDS011;3820;51.098;13.716;2023-04-01T17:06:53;1.83;;;1.20;;
7557;SDS011;3820;51.098;13.716;2023-04-01T17:12:13;1.25;;;1.00;;
7557;SDS011;3820;51.098;13.716;2023-04-01T17:14:59;2.35;;;1.30;;
7557;SDS011;3820;51.098;13.716;2023-04-01T17:17:43;1.50;;;1.40;;
7557;SDS011;3820;51.098;13.716;2023-04-01T17:23:01;1.50;;;1.40;;
7557;SDS011;3820;51.098;13.716;2023-04-01T17:28:25;1.70;;;1.53;;
7557;SDS011;3820;51.098;13.716;2023-04-01T17:34:04;1.70;;;1.57;;
7557;SDS011;3820;51.098;13.716;2023-04-01T17:36:57;1.80;;;1.70;;
7557;SDS011;3820;51.098;13.716;2023-04-01T17:39:30;1.80;;;1.60;;
7557;SDS011;3820;51.098;13.716;2023-04-01T17:42:27;2.47;;;1.83;;
7557;SDS011;3820;51.098;13.716;2023-04-01T17:45:02;2.53;;;2.00;;
7557;SDS011;3820;51.098;13.716;2023-04-01T18:01:30;4.57;;;2.90;;
7557;SDS011;3820;51.098;13.716;2023-04-01T18:04:17;5.20;;;3.20;;
7557;SDS011;3820;51.098;13.716;2023-04-01T18:06:56;5.77;;;3.63;;
7557;SDS011;3820;51.098;13.716;2023-04-01T18:12:09;6.25;;;4.22;;
7557;SDS011;3820;51.098;13.716;2023-04-01T18:14:49;5.17;;;4.07;;
7557;SDS011;3820;51.098;13.716;2023-04-01T18:17:22;4.70;;;3.93;;
7557;SDS011;3820;51.098;13.716;2023-04-01T18:22:48;4.70;;;3.77;;
7557;SDS011;3820;51.098;13.716;2023-04-01T18:25:21;8.03;;;4.97;;
7557;SDS011;3820;51.098;13.716;2023-04-01T18:30:37;6.97;;;3.70;;
7557;SDS011;3820;51.098;13.716;2023-04-01T18:35:50;3.70;;;3.40;;
7557;SDS011;3820;51.098;13.716;2023-04-01T18:38:29;5.30;;;3.40;;
7557;SDS011;3820;51.098;13.716;2023-04-01T18:41:30;3.67;;;3.20;;
7557;SDS011;3820;51.098;13.716;2023-04-01T18:49:48;4.03;;;3.40;;
7557;SDS011;3820;51.098;13.716;2023-04-01T18:52:21;4.70;;;3.58;;
7557;SDS011;3820;51.098;13.716;2023-04-01T18:57:49;4.67;;;3.83;;
7557;SDS011;3820;51.098;13.716;2023-04-01T19:00:20;5.47;;;4.10;;
7557;SDS011;3820;51.098;13.716;2023-04-01T19:05:31;4.87;;;3.97;;
7557;SDS011;3820;51.098;13.716;2023-04-01T19:08:18;6.57;;;4.57;;
7557;SDS011;3820;51.098;13.716;2023-04-01T19:21:35;6.03;;;4.37;;
7557;SDS011;3820;51.098;13.716;2023-04-01T19:27:02;7.27;;;4.90;;
7557;SDS011;3820;51.098;13.716;2023-04-01T19:45:57;3.90;;;3.33;;
7557;SDS011;3820;51.098;13.716;2023-04-01T19:53:50;5.60;;;4.00;;
7557;SDS011;3820;51.098;13.716;2023-04-01T19:56:21;5.97;;;4.80;;
7557;SDS011;3820;51.098;13.716;2023-04-01T19:58:51;5.80;;;5.20;;
7557;SDS011;3820;51.098;13.716;2023-04-01T20:01:27;7.13;;;5.37;;
7557;SDS011;3820;51.098;13.716;2023-04-01T20:04:14;5.30;;;4.80;;
7557;SDS011;3820;51.098;13.716;2023-04-01T20:06:46;6.07;;;5.47;;
7557;SDS011;3820;51.098;13.716;2023-04-01T20:09:26;7.50;;;5.77;;
7557;SDS011;3820;51.098;13.716;2023-04-01T20:14:54;6.40;;;5.80;;
7557;SDS011;3820;51.098;13.716;2023-04-01T20:17:41;6.87;;;6.17;;
7557;SDS011;3820;51.098;13.716;2023-04-01T20:22:38;7.70;;;6.40;;
7557;SDS011;3820;51.098;13.716;2023-04-01T20:25:11;6.10;;;5.50;;
7557;SDS011;3820;51.098;13.716;2023-04-01T20:28:01;7.23;;;6.10;;
7557;SDS011;3820;51.098;13.716;2023-04-01T20:38:56;7.97;;;6.50;;
7557;SDS011;3820;51.098;13.716;2023-04-01T20:41:49;7.70;;;6.43;;
7557;SDS011;3820;51.098;13.716;2023-04-01T20:44:28;8.83;;;7.07;;
7557;SDS011;3820;51.098;13.716;2023-04-01T20:47:12;8.73;;;6.10;;
7557;SDS011;3820;51.098;13.716;2023-04-01T20:53:05;7.47;;;6.70;;
7557;SDS011;3820;51.098;13.716;2023-04-01T21:06:30;6.47;;;5.67;;
7557;SDS011;3820;51.098;13.716;2023-04-01T21:14:30;5.20;;;4.70;;
7557;SDS011;3820;51.098;13.716;2023-04-01T21:17:22;6.13;;;5.53;;
7557;SDS011;3820;51.098;13.716;2023-04-01T21:33:59;8.37;;;6.17;;
7557;SDS011;3820;51.098;13.716;2023-04-01T21:42:30;7.37;;;6.30;;
7557;SDS011;3820;51.098;13.716;2023-04-01T21:45:08;7.63;;;6.83;;
7557;SDS011;3820;51.098;13.716;2023-04-01T21:50:44;7.90;;;6.60;;
7557;SDS011;3820;51.098;13.716;2023-04-01T21:56:17;8.07;;;6.47;;
7557;SDS011;3820;51.098;13.716;2023-04-01T21:59:01;6.57;;;5.83;;
7557;SDS011;3820;51.098;13.716;2023-04-01T22:08:12;7.90;;;6.30;;
7557;SDS011;3820;51.098;13.716;2023-04-01T22:13:16;10.47;;;6.93;;
7557;SDS011;3820;51.098;13.716;2023-04-01T22:15:54;10.67;;;6.07;;
7557;SDS011;3820;51.098;13.716;2023-04-01T22:23:42;10.90;;;6.90;;
7557;SDS011;3820;51.098;13.716;2023-04-01T22:28:51;12.93;;;8.40;;
7557;SDS011;3820;51.098;13.716;2023-04-01T22:31:23;13.80;;;8.73;;
7557;SDS011;3820;51.098;13.716;2023-04-01T22:43:07;14.07;;;9.53;;
7557;SDS011;3820;51.098;13.716;2023-04-01T22:48:23;18.00;;;10.90;;
7557;SDS011;3820;51.098;13.716;2023-04-01T22:50:56;18.50;;;11.20;;
7557;SDS011;3820;51.098;13.716;2023-04-01T22:53:41;16.67;;;11.13;;
7557;SDS011;3820;51.098;13.716;2023-04-01T22:56:24;15.37;;;11.03;;
7557;SDS011;3820;51.098;13.716;2023-04-01T22:59:45;15.13;;;10.30;;
7557;SDS011;3820;51.098;13.716;2023-04-01T23:02:04;16.40;;;11.53;;
7557;SDS011;3820;51.098;13.716;2023-04-01T23:04:37;17.30;;;11.50;;
7557;SDS011;3820;51.098;13.716;2023-04-01T23:09:55;16.50;;;11.50;;
7557;SDS011;3820;51.098;13.716;2023-04-01T23:12:22;15.53;;;10.63;;
7557;SDS011;3820;51.098;13.716;2023-04-01T23:15:00;14.20;;;9.97;;
7557;SDS011;3820;51.098;13.716;2023-04-01T23:26:13;12.17;;;9.43;;
7557;SDS011;3820;51.098;13.716;2023-04-01T23:34:14;10.43;;;9.07;;
7557;SDS011;3820;51.098;13.716;2023-04-01T23:36:47;11.10;;;8.63;;
7557;SDS011;3820;51.098;13.716;2023-04-01T23:42:00;15.83;;;10.27;;
7557;SDS011;3820;51.098;13.716;2023-04-01T23:44:40;14.47;;;10.57;;
7557;SDS011;3820;51.098;13.716;2023-04-01T23:47:08;12.77;;;9.80;;
7557;SDS011;3820;51.098;13.716;2023-04-01T23:49:40;11.60;;;9.70;;
7557;SDS011;3820;51.098;13.716;2023-04-01T23:54:55;11.13;;;9.13;;
7557;SDS011;3820;51.098;13.716;2023-04-01T23:57:27;10.60;;;8.33;;
